createdAt,value
2022-10-05T00:01:31.255Z,3.80
2022-10-05T00:04:18.973Z,4.07
2022-10-05T00:06:51.114Z,3.97
2022-10-05T00:09:20.833Z,4.03
2022-10-05T00:11:48.692Z,4.00
2022-10-05T00:14:29.303Z,3.78
2022-10-05T00:16:56.432Z,3.83
2022-10-05T00:19:32.249Z,4.20
2022-10-05T00:21:59.989Z,3.45
2022-10-05T00:24:26.312Z,3.92
2022-10-05T00:26:57.628Z,4.03
2022-10-05T00:29:24.592Z,4.00
2022-10-05T00:31:51.091Z,4.05
2022-10-05T00:34:17.955Z,3.13
2022-10-05T00:36:45.746Z,3.70
2022-10-05T00:39:12.656Z,3.58
2022-10-05T00:41:57.292Z,3.60
2022-10-05T00:44:26.678Z,3.58
2022-10-05T00:47:09.457Z,3.83
2022-10-05T00:49:58.736Z,3.78
2022-10-05T00:52:40.223Z,3.95
2022-10-05T00:55:33.826Z,3.33
2022-10-05T00:58:12.338Z,3.63
2022-10-05T01:01:11.192Z,3.60
2022-10-05T01:04:12.463Z,4.03
2022-10-05T01:06:47.871Z,4.10
2022-10-05T01:09:33.164Z,3.37
2022-10-05T01:12:35.457Z,3.80
2022-10-05T01:15:30.912Z,3.72
2022-10-05T01:18:00.983Z,3.88
2022-10-05T01:20:39.474Z,4.03
2022-10-05T01:23:17.833Z,4.00
2022-10-05T01:26:12.917Z,4.13
2022-10-05T01:29:06.212Z,4.63
2022-10-05T01:31:45.546Z,4.38
2022-10-05T01:34:30.135Z,4.28
2022-10-05T01:37:12.767Z,5.23
2022-10-05T01:40:18.877Z,4.70
2022-10-05T01:43:00.225Z,5.00
2022-10-05T01:45:34.148Z,4.82
2022-10-05T01:48:07.570Z,4.63
2022-10-05T01:50:52.672Z,4.80
2022-10-05T01:53:35.603Z,4.90
2022-10-05T01:56:23.862Z,4.97
2022-10-05T01:59:01.181Z,5.63
2022-10-05T02:01:38.423Z,5.57
2022-10-05T02:05:00.320Z,5.00
2022-10-05T02:07:34.117Z,5.32
2022-10-05T02:10:18.977Z,4.90
2022-10-05T02:12:48.884Z,5.20
2022-10-05T02:15:22.573Z,4.97
2022-10-05T02:17:52.693Z,5.63
2022-10-05T02:20:32.349Z,5.05
2022-10-05T02:23:05.943Z,5.20
2022-10-05T02:25:36.821Z,5.45
2022-10-05T02:28:20.298Z,5.38
2022-10-05T02:30:54.989Z,5.53
2022-10-05T02:33:28.614Z,5.82
2022-10-05T02:36:00.638Z,5.10
2022-10-05T02:38:59.261Z,5.30
2022-10-05T02:41:52.207Z,5.63
2022-10-05T02:44:33.546Z,5.30
2022-10-05T02:47:11.588Z,5.47
2022-10-05T02:50:05.848Z,5.80
2022-10-05T02:52:54.216Z,5.50
2022-10-05T02:55:50.847Z,4.75
2022-10-05T02:58:24.814Z,5.60
2022-10-05T03:01:00.522Z,5.57
2022-10-05T03:03:34.888Z,5.45
2022-10-05T03:06:05.604Z,5.03
2022-10-05T03:08:51.556Z,5.68
2022-10-05T03:11:42.648Z,4.37
2022-10-05T03:14:37.055Z,5.13
2022-10-05T03:17:20.811Z,4.90
2022-10-05T03:20:02.105Z,5.25
2022-10-05T03:22:49.586Z,5.18
2022-10-05T03:25:32.609Z,5.20
2022-10-05T03:28:12.186Z,4.85
2022-10-05T03:31:06.633Z,5.22
2022-10-05T03:33:42.833Z,5.88
2022-10-05T03:36:36.338Z,5.25
2022-10-05T03:39:05.882Z,4.80
2022-10-05T03:41:50.375Z,4.50
2022-10-05T03:44:49.256Z,4.35
2022-10-05T03:47:37.910Z,4.68
2022-10-05T03:50:30.011Z,4.40
2022-10-05T03:53:18.332Z,4.10
2022-10-05T03:55:54.207Z,4.20
2022-10-05T03:58:40.991Z,4.22
2022-10-05T04:01:17.087Z,4.22
2022-10-05T04:03:52.152Z,3.83
2022-10-05T04:06:25.460Z,4.63
2022-10-05T04:09:02.015Z,4.68
2022-10-05T04:11:47.035Z,3.90
2022-10-05T04:14:21.863Z,3.80
2022-10-05T04:16:54.789Z,4.20
2022-10-05T04:19:32.039Z,3.90
2022-10-05T04:22:24.956Z,4.15
2022-10-05T04:24:58.778Z,4.03
2022-10-05T04:27:32.250Z,3.97
2022-10-05T04:30:05.137Z,4.00
2022-10-05T04:32:37.524Z,3.33
2022-10-05T04:35:24.636Z,3.72
2022-10-05T04:37:53.883Z,4.13
2022-10-05T04:40:31.317Z,3.92
2022-10-05T04:43:15.919Z,4.15
2022-10-05T04:46:27.459Z,4.63
2022-10-05T04:49:10.292Z,3.78
2022-10-05T04:51:55.315Z,4.00
2022-10-05T04:54:42.200Z,4.38
2022-10-05T04:57:33.988Z,3.90
2022-10-05T05:00:18.178Z,4.13
2022-10-05T05:03:07.489Z,4.25
2022-10-05T05:05:58.620Z,3.90
2022-10-05T05:08:46.692Z,3.63
2022-10-05T05:11:41.568Z,3.38
2022-10-05T05:14:19.448Z,3.20
2022-10-05T05:16:54.807Z,3.80
2022-10-05T05:19:28.556Z,3.10
2022-10-05T05:22:16.029Z,2.60
2022-10-05T05:24:42.273Z,3.25
2022-10-05T05:27:46.069Z,2.63
2022-10-05T05:30:23.193Z,2.60
2022-10-05T05:33:08.493Z,2.22
2022-10-05T05:36:14.086Z,2.00
2022-10-05T05:39:08.241Z,2.50
2022-10-05T05:41:39.042Z,2.00
2022-10-05T05:44:21.541Z,2.97
2022-10-05T05:47:05.465Z,2.63
2022-10-05T05:49:44.306Z,2.28
2022-10-05T05:52:18.012Z,2.15
2022-10-05T05:55:02.432Z,2.47
2022-10-05T05:57:44.575Z,2.72
2022-10-05T06:00:14.290Z,2.95
2022-10-05T06:02:57.006Z,3.15
2022-10-05T06:05:48.168Z,2.92
2022-10-05T06:08:24.704Z,3.20
2022-10-05T06:11:16.580Z,3.30
2022-10-05T06:13:44.033Z,3.65
2022-10-05T06:16:36.898Z,5.25
2022-10-05T06:19:10.335Z,4.80
2022-10-05T06:21:46.871Z,2.97
2022-10-05T06:24:31.701Z,3.17
2022-10-05T06:27:13.368Z,10.35
2022-10-05T06:30:03.299Z,3.35
2022-10-05T06:32:50.735Z,3.97
2022-10-05T06:36:21.971Z,3.27
2022-10-05T06:38:50.925Z,3.20
2022-10-05T06:41:29.184Z,3.08
2022-10-05T06:44:04.115Z,3.78
2022-10-05T06:46:49.027Z,3.78
2022-10-05T06:49:18.896Z,3.40
2022-10-05T06:51:58.289Z,3.45
2022-10-05T06:54:46.410Z,3.33
2022-10-05T06:57:36.464Z,3.63
2022-10-05T07:00:02.758Z,3.45
2022-10-05T07:02:38.935Z,3.33
2022-10-05T07:05:20.287Z,3.00
2022-10-05T07:08:00.877Z,3.40
2022-10-05T07:10:50.282Z,2.92
2022-10-05T07:13:38.233Z,3.40
2022-10-05T07:16:26.421Z,2.90
2022-10-05T07:18:55.841Z,2.92
2022-10-05T07:21:45.880Z,3.10
2022-10-05T07:24:15.290Z,2.95
2022-10-05T07:26:46.789Z,2.92
2022-10-05T07:29:23.795Z,2.80
2022-10-05T07:32:07.297Z,2.80
2022-10-05T07:34:45.452Z,2.60
2022-10-05T07:37:47.436Z,2.92
2022-10-05T07:40:23.140Z,5.68
2022-10-05T07:43:03.788Z,7.87
2022-10-05T07:45:47.850Z,3.30
2022-10-05T07:48:21.102Z,3.22
2022-10-05T07:51:01.591Z,2.90
2022-10-05T07:53:48.035Z,2.78
2022-10-05T07:56:26.589Z,2.10
2022-10-05T07:59:02.894Z,3.03
2022-10-05T08:01:38.267Z,2.53
2022-10-05T08:04:19.994Z,2.78
2022-10-05T08:06:54.023Z,2.90
2022-10-05T08:09:57.779Z,3.03
2022-10-05T08:12:27.060Z,2.63
2022-10-05T08:14:58.840Z,3.05
2022-10-05T08:17:50.694Z,4.97
2022-10-05T08:20:29.597Z,2.72
2022-10-05T08:23:10.476Z,3.07
2022-10-05T08:25:45.588Z,2.53
2022-10-05T08:28:26.907Z,2.53
2022-10-05T08:31:16.671Z,2.70
2022-10-05T08:33:55.457Z,2.63
2022-10-05T08:36:43.862Z,2.73
2022-10-05T08:39:18.462Z,2.70
2022-10-05T08:42:00.009Z,2.63
2022-10-05T08:45:01.309Z,2.70
2022-10-05T08:48:05.700Z,2.83
2022-10-05T08:50:47.139Z,2.67
2022-10-05T08:53:22.471Z,2.65
2022-10-05T08:55:56.852Z,3.15
2022-10-05T08:58:42.928Z,2.50
2022-10-05T09:01:25.940Z,2.55
2022-10-05T09:04:18.140Z,2.67
2022-10-05T09:06:59.389Z,2.65
2022-10-05T09:09:40.649Z,2.47
2022-10-05T09:12:37.417Z,2.25
2022-10-05T09:15:31.219Z,2.15
2022-10-05T09:18:29.324Z,2.10
2022-10-05T09:21:44.754Z,2.50
2022-10-05T09:24:14.111Z,1.80
2022-10-05T09:26:40.356Z,1.70
2022-10-05T09:29:34.591Z,1.95
2022-10-05T09:32:18.834Z,1.87
2022-10-05T09:35:08.068Z,1.75
2022-10-05T09:38:10.087Z,1.77
2022-10-05T09:41:14.504Z,1.83
2022-10-05T09:43:59.020Z,2.47
2022-10-05T09:46:37.592Z,5.70
2022-10-05T09:49:28.528Z,3.15
2022-10-05T09:52:15.131Z,2.83
2022-10-05T09:55:08.145Z,2.20
2022-10-05T09:57:49.266Z,2.60
2022-10-05T10:00:37.668Z,6.90
2022-10-05T10:03:45.274Z,1.73
2022-10-05T10:06:26.554Z,2.33
2022-10-05T10:09:11.742Z,1.67
2022-10-05T10:12:08.368Z,1.67
2022-10-05T10:15:16.081Z,1.47
2022-10-05T10:18:08.754Z,2.00
2022-10-05T10:20:55.981Z,1.92
2022-10-05T10:24:00.259Z,2.25
2022-10-05T10:26:48.512Z,1.98
2022-10-05T10:29:33.544Z,2.10
2022-10-05T10:32:19.465Z,2.30
2022-10-05T10:35:04.487Z,2.55
2022-10-05T10:37:39.476Z,2.58
2022-10-05T10:40:28.738Z,18.50
2022-10-05T10:43:21.901Z,2.57
2022-10-05T10:46:12.711Z,2.17
2022-10-05T10:48:52.753Z,1.85
2022-10-05T10:51:28.188Z,2.17
2022-10-05T10:54:36.045Z,2.33
2022-10-05T10:57:16.737Z,2.20
2022-10-05T11:00:08.131Z,2.22
2022-10-05T11:03:08.427Z,2.47
2022-10-05T11:05:48.781Z,2.30
2022-10-05T11:08:54.462Z,2.45
2022-10-05T11:11:53.221Z,2.20
2022-10-05T11:14:42.819Z,2.22
2022-10-05T11:17:38.279Z,2.65
2022-10-05T11:20:25.267Z,2.38
2022-10-05T11:23:07.645Z,2.90
2022-10-05T11:25:48.885Z,2.70
2022-10-05T11:28:43.026Z,4.63
2022-10-05T11:31:53.352Z,2.30
2022-10-05T11:34:38.561Z,2.20
2022-10-05T11:37:32.316Z,2.67
2022-10-05T11:40:20.849Z,2.87
2022-10-05T11:43:08.423Z,2.72
2022-10-05T11:46:00.576Z,2.60
2022-10-05T11:48:38.909Z,3.10
2022-10-05T11:51:34.133Z,5.35
2022-10-05T11:54:09.239Z,2.07
2022-10-05T11:56:38.044Z,1.83
2022-10-05T11:59:34.464Z,2.00
2022-10-05T12:02:21.212Z,2.10
2022-10-05T12:05:06.403Z,2.00
2022-10-05T12:07:42.937Z,1.70
2022-10-05T12:10:16.801Z,1.90
2022-10-05T12:13:19.285Z,1.80
2022-10-05T12:16:08.177Z,1.65
2022-10-05T12:18:39.080Z,1.90
2022-10-05T12:21:15.200Z,1.80
2022-10-05T12:23:54.726Z,1.55
2022-10-05T12:26:39.643Z,2.55
2022-10-05T12:29:06.726Z,1.50
2022-10-05T12:31:48.170Z,1.58
2022-10-05T12:34:29.763Z,1.63
2022-10-05T12:37:43.240Z,1.40
2022-10-05T12:40:21.780Z,1.70
2022-10-05T12:43:08.741Z,1.50
2022-10-05T12:46:06.359Z,1.17
2022-10-05T12:48:42.120Z,1.57
2022-10-05T12:51:44.761Z,1.25
2022-10-05T12:54:22.222Z,1.60
2022-10-05T12:56:58.028Z,1.30
2022-10-05T12:59:46.744Z,1.30
2022-10-05T13:02:30.439Z,1.63
2022-10-05T13:05:27.126Z,1.20
2022-10-05T13:08:17.902Z,1.48
2022-10-05T13:11:02.102Z,1.60
2022-10-05T13:13:42.796Z,1.77
2022-10-05T13:16:27.295Z,2.70
2022-10-05T13:19:15.918Z,3.85
2022-10-05T13:22:16.647Z,1.50
2022-10-05T13:25:23.195Z,1.90
2022-10-05T13:28:16.539Z,1.70
2022-10-05T13:30:53.950Z,1.90
2022-10-05T13:33:30.579Z,1.30
2022-10-05T13:36:21.251Z,2.05
2022-10-05T13:38:59.551Z,1.60
2022-10-05T13:41:50.068Z,2.67
2022-10-05T13:44:30.620Z,2.17
2022-10-05T13:47:16.787Z,1.88
2022-10-05T13:49:57.825Z,1.48
2022-10-05T13:52:37.596Z,1.15
2022-10-05T13:55:18.068Z,1.48
2022-10-05T13:57:53.276Z,1.60
2022-10-05T14:00:27.112Z,1.77
2022-10-05T14:02:56.835Z,1.42
2022-10-05T14:05:26.909Z,1.40
2022-10-05T14:08:02.073Z,1.45
2022-10-05T14:10:43.282Z,1.53
2022-10-05T14:13:46.575Z,1.65
2022-10-05T14:16:12.999Z,2.15
2022-10-05T14:18:52.729Z,1.75
2022-10-05T14:21:25.069Z,1.63
2022-10-05T14:23:52.214Z,1.40
2022-10-05T14:26:31.618Z,1.00
2022-10-05T14:29:02.176Z,1.30
2022-10-05T14:31:31.742Z,1.20
2022-10-05T14:34:29.302Z,1.02
2022-10-05T14:37:01.719Z,1.47
2022-10-05T14:39:33.314Z,1.20
2022-10-05T14:42:13.629Z,1.40
2022-10-05T14:44:40.156Z,1.33
2022-10-05T14:47:20.344Z,1.25
2022-10-05T14:50:10.530Z,1.20
2022-10-05T14:52:38.873Z,1.25
2022-10-05T14:55:30.101Z,1.50
2022-10-05T14:58:12.286Z,1.08
2022-10-05T15:00:56.738Z,1.30
2022-10-05T15:03:41.005Z,1.10
2022-10-05T15:06:18.078Z,1.13
2022-10-05T15:08:56.728Z,1.10
2022-10-05T15:11:37.217Z,1.08
2022-10-05T15:14:11.856Z,1.30
2022-10-05T15:16:40.387Z,1.20
2022-10-05T15:19:17.864Z,0.85
2022-10-05T15:22:09.344Z,1.13
2022-10-05T15:25:08.701Z,1.40
2022-10-05T15:28:00.098Z,0.98
2022-10-05T15:30:26.444Z,1.10
2022-10-05T15:33:11.113Z,1.05
2022-10-05T15:36:06.266Z,1.20
2022-10-05T15:38:49.534Z,1.00
2022-10-05T15:41:27.792Z,1.33
2022-10-05T15:44:25.945Z,1.37
2022-10-05T15:47:35.324Z,1.27
2022-10-05T15:50:29.585Z,1.33
2022-10-05T15:52:59.359Z,1.23
2022-10-05T15:55:35.194Z,1.25
2022-10-05T15:58:08.320Z,1.40
2022-10-05T16:00:42.717Z,1.17
2022-10-05T16:03:25.564Z,1.48
2022-10-05T16:06:20.504Z,1.50
2022-10-05T16:09:16.691Z,1.20
2022-10-05T16:11:56.369Z,1.30
2022-10-05T16:14:55.705Z,1.48
2022-10-05T16:17:49.000Z,1.40
2022-10-05T16:20:35.592Z,1.10
2022-10-05T16:23:22.919Z,1.20
2022-10-05T16:25:58.727Z,0.83
2022-10-05T16:28:39.363Z,1.20
2022-10-05T16:31:08.328Z,1.17
2022-10-05T16:33:54.309Z,1.23
2022-10-05T16:36:36.243Z,0.90
2022-10-05T16:39:29.135Z,1.23
2022-10-05T16:42:06.402Z,0.95
2022-10-05T16:44:49.514Z,1.02
2022-10-05T16:47:40.381Z,1.02
2022-10-05T16:50:42.947Z,0.80
2022-10-05T16:53:38.525Z,1.00
2022-10-05T16:56:11.392Z,1.50
2022-10-05T16:58:58.669Z,1.10
2022-10-05T17:01:47.041Z,1.20
2022-10-05T17:04:40.206Z,1.20
2022-10-05T17:07:32.744Z,1.10
2022-10-05T17:10:28.587Z,1.27
2022-10-05T17:13:16.186Z,1.40
2022-10-05T17:16:00.691Z,1.33
2022-10-05T17:18:51.600Z,0.98
2022-10-05T17:21:22.911Z,1.20
2022-10-05T17:24:15.485Z,1.30
2022-10-05T17:27:03.527Z,1.40
2022-10-05T17:29:47.549Z,1.42
2022-10-05T17:32:16.929Z,1.38
2022-10-05T17:35:01.736Z,1.20
2022-10-05T17:37:27.974Z,1.05
2022-10-05T17:39:56.076Z,1.33
2022-10-05T17:42:31.177Z,1.15
2022-10-05T17:45:20.561Z,1.27
2022-10-05T17:48:09.016Z,1.20
2022-10-05T17:51:00.093Z,1.40
2022-10-05T17:54:03.219Z,1.30
2022-10-05T17:56:58.611Z,1.30
2022-10-05T17:59:37.304Z,1.50
2022-10-05T18:02:36.638Z,1.27
2022-10-05T18:05:04.024Z,1.35
2022-10-05T18:07:31.602Z,1.55
2022-10-05T18:10:11.520Z,1.30
2022-10-05T18:12:40.814Z,1.42
2022-10-05T18:15:07.055Z,1.30
2022-10-05T18:17:39.906Z,1.30
2022-10-05T18:20:13.748Z,1.35
2022-10-05T18:22:40.677Z,1.33
2022-10-05T18:25:22.794Z,1.30
2022-10-05T18:28:13.919Z,1.40
2022-10-05T18:30:55.173Z,1.60
2022-10-05T18:33:55.670Z,1.40
2022-10-05T18:36:48.407Z,1.23
2022-10-05T18:39:51.436Z,1.30
2022-10-05T18:42:32.836Z,1.47
2022-10-05T18:45:17.874Z,1.20
2022-10-05T18:47:47.047Z,1.15
2022-10-05T18:50:38.335Z,1.30
2022-10-05T18:53:14.848Z,1.50
2022-10-05T18:55:47.685Z,1.40
2022-10-05T18:58:20.392Z,1.40
2022-10-05T19:01:05.246Z,1.60
2022-10-05T19:03:51.284Z,1.45
2022-10-05T19:06:36.165Z,1.90
2022-10-05T19:09:08.260Z,1.47
2022-10-05T19:11:38.512Z,1.42
2022-10-05T19:14:20.129Z,1.55
2022-10-05T19:17:04.146Z,1.30
2022-10-05T19:19:36.815Z,1.33
2022-10-05T19:22:34.486Z,2.10
2022-10-05T19:25:09.891Z,1.15
2022-10-05T19:27:55.336Z,1.30
2022-10-05T19:30:25.138Z,1.50
2022-10-05T19:33:26.054Z,1.60
2022-10-05T19:36:17.204Z,1.60
2022-10-05T19:38:55.827Z,1.30
2022-10-05T19:41:36.074Z,1.60
2022-10-05T19:44:11.286Z,1.30
2022-10-05T19:47:01.331Z,1.92
2022-10-05T19:49:42.884Z,0.97
2022-10-05T19:52:13.730Z,0.70
2022-10-05T19:54:42.323Z,0.45
2022-10-05T19:57:18.912Z,0.50
2022-10-05T19:59:47.647Z,0.43
2022-10-05T20:02:17.318Z,0.30
2022-10-05T20:04:47.382Z,0.30
2022-10-05T20:07:16.932Z,0.20
2022-10-05T20:09:50.713Z,0.20
2022-10-05T20:12:17.148Z,0.20
2022-10-05T20:15:02.065Z,0.30
2022-10-05T20:17:47.967Z,0.20
2022-10-05T20:20:44.557Z,0.30
2022-10-05T20:23:21.046Z,0.22
2022-10-05T20:26:07.343Z,0.20
2022-10-05T20:28:33.750Z,0.30
2022-10-05T20:31:00.149Z,0.30
2022-10-05T20:33:27.560Z,0.30
2022-10-05T20:35:54.433Z,0.20
2022-10-05T20:38:21.066Z,0.30
2022-10-05T20:40:47.402Z,0.30
2022-10-05T20:43:14.425Z,0.30
2022-10-05T20:45:43.729Z,0.57
2022-10-05T20:48:11.118Z,0.30
2022-10-05T20:50:37.812Z,0.40
2022-10-05T20:53:09.646Z,0.30
2022-10-05T20:55:37.984Z,0.30
2022-10-05T20:58:04.284Z,0.50
2022-10-05T21:00:50.603Z,0.65
2022-10-05T21:03:19.184Z,0.40
2022-10-05T21:05:46.693Z,0.33
2022-10-05T21:08:13.028Z,0.47
2022-10-05T21:10:39.999Z,0.55
2022-10-05T21:13:06.322Z,0.30
2022-10-05T21:15:32.627Z,0.28
2022-10-05T21:17:59.242Z,0.50
2022-10-05T21:20:25.965Z,0.20
2022-10-05T21:22:52.269Z,0.28
2022-10-05T21:25:18.566Z,0.50
2022-10-05T21:27:46.249Z,0.20
2022-10-05T21:30:12.791Z,0.30
2022-10-05T21:32:43.977Z,0.22
2022-10-05T21:35:10.852Z,0.20
2022-10-05T21:37:37.252Z,0.20
2022-10-05T21:40:03.927Z,0.20
2022-10-05T21:42:30.295Z,0.20
2022-10-05T21:44:56.583Z,0.30
2022-10-05T21:47:22.947Z,0.20
2022-10-05T21:49:49.307Z,0.32
2022-10-05T21:52:15.616Z,0.30
2022-10-05T21:54:41.937Z,0.20
2022-10-05T21:57:11.462Z,0.20
2022-10-05T21:59:37.860Z,0.30
2022-10-05T22:02:04.309Z,0.30
2022-10-05T22:04:30.655Z,0.40
2022-10-05T22:06:57.005Z,0.50
2022-10-05T22:09:23.367Z,0.30
2022-10-05T22:11:49.685Z,0.30
2022-10-05T22:14:16.180Z,0.30
2022-10-05T22:16:43.960Z,0.25
2022-10-05T22:19:18.455Z,0.27
2022-10-05T22:21:44.894Z,0.30
2022-10-05T22:24:14.089Z,0.30
2022-10-05T22:26:43.655Z,0.32
2022-10-05T22:29:10.075Z,0.35
2022-10-05T22:31:36.906Z,0.30
2022-10-05T22:34:03.292Z,0.30
2022-10-05T22:36:29.623Z,0.30
2022-10-05T22:38:56.036Z,0.82
2022-10-05T22:41:22.422Z,0.50
2022-10-05T22:43:50.138Z,0.40
2022-10-05T22:46:16.943Z,0.45
2022-10-05T22:48:43.555Z,0.60
2022-10-05T22:51:10.195Z,0.45
2022-10-05T22:53:36.545Z,0.40
2022-10-05T22:56:13.916Z,0.30
2022-10-05T22:58:41.690Z,0.43
2022-10-05T23:01:11.629Z,0.50
2022-10-05T23:03:38.901Z,0.40
2022-10-05T23:06:08.972Z,0.50
2022-10-05T23:08:37.288Z,0.50
2022-10-05T23:11:04.213Z,0.50
2022-10-05T23:13:30.924Z,0.63
2022-10-05T23:15:57.617Z,0.52
2022-10-05T23:18:24.106Z,0.50
2022-10-05T23:20:57.130Z,0.70
2022-10-05T23:23:23.543Z,0.70
2022-10-05T23:25:50.059Z,0.70
2022-10-05T23:28:16.408Z,0.80
2022-10-05T23:30:42.875Z,0.50
2022-10-05T23:33:09.247Z,0.60
2022-10-05T23:35:35.584Z,0.50
2022-10-05T23:38:01.884Z,0.40
2022-10-05T23:40:28.216Z,0.60
2022-10-05T23:42:54.521Z,0.77
2022-10-05T23:45:20.822Z,0.53
2022-10-05T23:47:47.144Z,0.75
2022-10-05T23:50:13.442Z,1.05
2022-10-05T23:52:39.876Z,1.00
2022-10-05T23:55:06.925Z,0.73
2022-10-05T23:57:33.335Z,0.60
